createdAt,value
2023-05-23T00:00:11.531Z,14.00
2023-05-23T00:03:05.860Z,13.96
2023-05-23T00:05:34.693Z,13.89
2023-05-23T00:08:04.988Z,13.86
2023-05-23T00:10:33.715Z,13.83
2023-05-23T00:13:05.584Z,13.79
2023-05-23T00:15:34.386Z,13.77
2023-05-23T00:18:03.443Z,13.73
2023-05-23T00:20:32.270Z,13.69
2023-05-23T00:23:01.267Z,13.63
2023-05-23T00:25:34.393Z,13.59
2023-05-23T00:28:06.295Z,13.58
2023-05-23T00:30:35.786Z,13.59
2023-05-23T00:33:05.196Z,13.58
2023-05-23T00:35:33.978Z,13.47
2023-05-23T00:38:03.436Z,13.45
2023-05-23T00:40:32.192Z,13.43
2023-05-23T00:43:01.927Z,13.41
2023-05-23T00:45:32.152Z,13.44
2023-05-23T00:48:02.678Z,13.38
2023-05-23T00:50:32.074Z,13.43
2023-05-23T00:53:02.829Z,13.35
2023-05-23T00:55:32.475Z,13.36
2023-05-23T00:58:02.025Z,13.35
2023-05-23T01:00:34.235Z,13.37
2023-05-23T01:03:04.075Z,13.33
2023-05-23T01:05:32.854Z,13.30
2023-05-23T01:08:03.405Z,13.25
2023-05-23T01:10:33.257Z,13.21
2023-05-23T01:13:19.205Z,13.18
2023-05-23T01:15:59.821Z,13.16
2023-05-23T01:18:41.484Z,13.12
2023-05-23T01:21:18.429Z,13.05
2023-05-23T01:24:36.292Z,13.05
2023-05-23T01:27:24.723Z,12.98
2023-05-23T01:29:59.749Z,12.96
2023-05-23T01:32:30.266Z,12.94
2023-05-23T01:35:02.042Z,12.90
2023-05-23T01:37:31.294Z,12.87
2023-05-23T01:40:01.230Z,12.86
2023-05-23T01:42:30.707Z,12.87
2023-05-23T01:45:01.207Z,12.80
2023-05-23T01:47:30.545Z,12.80
2023-05-23T01:50:02.621Z,12.76
2023-05-23T01:52:31.672Z,12.71
2023-05-23T01:55:02.278Z,12.65
2023-05-23T01:57:31.989Z,12.63
2023-05-23T02:00:02.625Z,12.62
2023-05-23T02:02:42.739Z,12.60
2023-05-23T02:05:12.691Z,12.58
2023-05-23T02:07:41.517Z,12.57
2023-05-23T02:10:11.937Z,12.58
2023-05-23T02:12:40.849Z,12.54
2023-05-23T02:15:12.300Z,12.54
2023-05-23T02:17:41.513Z,12.50
2023-05-23T02:20:11.771Z,12.48
2023-05-23T02:22:40.638Z,12.47
2023-05-23T02:25:11.341Z,12.49
2023-05-23T02:27:41.482Z,12.50
2023-05-23T02:30:13.376Z,12.50
2023-05-23T02:32:42.267Z,12.46
2023-05-23T02:35:11.472Z,12.49
2023-05-23T02:37:40.286Z,12.46
2023-05-23T02:40:10.811Z,12.48
2023-05-23T02:42:39.647Z,12.47
2023-05-23T02:45:12.040Z,12.46
2023-05-23T02:47:41.002Z,12.48
2023-05-23T02:50:12.688Z,12.48
2023-05-23T02:52:42.409Z,12.47
2023-05-23T02:55:11.520Z,12.48
2023-05-23T02:57:44.680Z,12.48
2023-05-23T03:00:16.247Z,12.48
2023-05-23T03:02:49.856Z,12.53
2023-05-23T03:05:19.924Z,12.59
2023-05-23T03:07:48.798Z,12.62
2023-05-23T03:10:18.126Z,12.63
2023-05-23T03:12:48.722Z,12.65
2023-05-23T03:15:21.071Z,12.67
2023-05-23T03:17:50.186Z,12.68
2023-05-23T03:20:19.264Z,12.71
2023-05-23T03:22:48.299Z,12.76
2023-05-23T03:25:17.690Z,12.79
2023-05-23T03:27:46.505Z,12.79
2023-05-23T03:30:15.874Z,12.83
2023-05-23T03:32:46.689Z,12.85
2023-05-23T03:35:15.760Z,12.86
2023-05-23T03:37:44.517Z,12.93
2023-05-23T03:40:13.761Z,13.04
2023-05-23T03:42:43.102Z,13.17
2023-05-23T03:45:12.862Z,13.23
2023-05-23T03:47:43.008Z,13.31
2023-05-23T03:50:14.001Z,13.35
2023-05-23T03:52:43.499Z,13.44
2023-05-23T03:55:12.776Z,13.47
2023-05-23T03:57:41.812Z,13.54
2023-05-23T04:00:12.836Z,13.62
2023-05-23T04:02:48.596Z,13.71
2023-05-23T04:05:21.741Z,13.79
2023-05-23T04:07:52.730Z,13.92
2023-05-23T04:10:21.991Z,14.01
2023-05-23T04:12:51.744Z,14.06
2023-05-23T04:15:21.702Z,14.13
2023-05-23T04:18:10.433Z,14.24
2023-05-23T04:20:41.973Z,14.32
2023-05-23T04:23:11.200Z,14.39
2023-05-23T04:25:43.253Z,14.45
2023-05-23T04:28:17.894Z,14.57
2023-05-23T04:30:49.526Z,14.65
2023-05-23T04:33:21.797Z,14.77
2023-05-23T04:35:52.299Z,14.89
2023-05-23T04:38:22.191Z,14.99
2023-05-23T04:40:53.293Z,15.08
2023-05-23T04:43:42.688Z,15.21
2023-05-23T04:46:31.038Z,15.34
2023-05-23T04:49:14.511Z,15.51
2023-05-23T04:51:45.863Z,15.62
2023-05-23T04:54:21.824Z,15.75
2023-05-23T04:56:51.338Z,15.84
2023-05-23T04:59:22.179Z,15.95
2023-05-23T05:01:51.354Z,16.05
2023-05-23T05:04:23.390Z,16.18
2023-05-23T05:06:54.469Z,16.29
2023-05-23T05:09:23.731Z,16.40
2023-05-23T05:11:53.451Z,16.53
2023-05-23T05:14:23.048Z,16.69
2023-05-23T05:16:52.103Z,16.83
2023-05-23T05:19:23.263Z,17.01
2023-05-23T05:21:53.762Z,17.26
2023-05-23T05:24:22.638Z,17.47
2023-05-23T05:26:51.868Z,17.69
2023-05-23T05:29:20.693Z,17.99
2023-05-23T05:31:49.702Z,18.36
2023-05-23T05:34:18.750Z,18.77
2023-05-23T05:36:48.361Z,19.04
2023-05-23T05:39:20.793Z,19.35
2023-05-23T05:41:50.779Z,19.61
2023-05-23T05:44:19.698Z,19.85
2023-05-23T05:46:49.502Z,20.06
2023-05-23T05:49:18.308Z,20.21
2023-05-23T05:51:48.332Z,20.38
2023-05-23T05:54:19.110Z,20.52
2023-05-23T05:56:49.835Z,20.68
2023-05-23T05:59:18.652Z,20.75
2023-05-23T06:01:47.756Z,20.99
2023-05-23T06:04:16.624Z,21.07
2023-05-23T06:06:46.103Z,21.19
2023-05-23T06:09:14.904Z,21.37
2023-05-23T06:11:45.139Z,21.43
2023-05-23T06:14:15.232Z,21.70
2023-05-23T06:16:48.309Z,21.82
2023-05-23T06:19:17.223Z,21.81
2023-05-23T06:21:47.344Z,21.99
2023-05-23T06:24:17.198Z,22.26
2023-05-23T06:26:46.296Z,22.20
2023-05-23T06:29:17.477Z,22.30
2023-05-23T06:31:46.690Z,22.33
2023-05-23T06:34:15.530Z,22.50
2023-05-23T06:36:46.951Z,22.56
2023-05-23T06:39:15.968Z,22.78
2023-05-23T06:41:45.815Z,23.07
2023-05-23T06:44:16.607Z,23.22
2023-05-23T06:46:47.706Z,23.45
2023-05-23T06:49:16.991Z,23.61
2023-05-23T06:51:47.551Z,23.66
2023-05-23T06:54:17.038Z,23.90
2023-05-23T06:56:46.686Z,24.07
2023-05-23T06:59:27.028Z,24.19
2023-05-23T07:02:01.327Z,24.24
2023-05-23T07:04:30.980Z,24.18
2023-05-23T07:07:05.268Z,24.19
2023-05-23T07:09:34.456Z,24.19
2023-05-23T07:12:14.775Z,24.39
2023-05-23T07:14:47.236Z,24.64
2023-05-23T07:17:17.264Z,24.66
2023-05-23T07:19:47.708Z,24.79
2023-05-23T07:22:16.948Z,24.94
2023-05-23T07:24:46.389Z,24.78
2023-05-23T07:27:16.836Z,24.91
2023-05-23T07:29:47.037Z,24.95
2023-05-23T07:32:16.257Z,24.94
2023-05-23T07:34:45.848Z,25.12
2023-05-23T07:37:14.894Z,25.15
2023-05-23T07:39:46.282Z,25.10
2023-05-23T07:42:15.437Z,24.93
2023-05-23T07:44:44.276Z,24.72
2023-05-23T07:47:14.869Z,24.57
2023-05-23T07:49:44.650Z,24.75
2023-05-23T07:52:13.735Z,24.93
2023-05-23T07:54:42.795Z,24.94
2023-05-23T07:57:13.254Z,25.00
2023-05-23T07:59:42.172Z,24.96
2023-05-23T08:02:11.876Z,25.00
2023-05-23T08:04:45.017Z,24.90
2023-05-23T08:07:15.820Z,24.86
2023-05-23T08:09:49.440Z,24.72
2023-05-23T08:12:21.390Z,24.67
2023-05-23T08:14:54.070Z,24.68
2023-05-23T08:17:28.517Z,24.77
2023-05-23T08:20:00.638Z,24.82
2023-05-23T08:22:30.829Z,24.94
2023-05-23T08:25:00.141Z,24.90
2023-05-23T08:27:32.033Z,24.68
2023-05-23T08:30:09.896Z,24.90
2023-05-23T08:32:40.144Z,24.94
2023-05-23T08:35:10.879Z,25.12
2023-05-23T08:37:43.145Z,25.28
2023-05-23T08:40:19.676Z,25.37
2023-05-23T08:42:53.738Z,25.46
2023-05-23T08:45:23.797Z,25.60
2023-05-23T08:47:55.786Z,25.28
2023-05-23T08:50:31.309Z,25.35
2023-05-23T08:53:01.305Z,25.56
2023-05-23T08:55:32.388Z,25.71
2023-05-23T08:58:04.618Z,25.81
2023-05-23T09:00:50.227Z,25.74
2023-05-23T09:03:20.126Z,25.51
2023-05-23T09:06:12.987Z,25.85
2023-05-23T09:08:46.126Z,25.58
2023-05-23T09:11:16.649Z,25.72
2023-05-23T09:13:48.335Z,25.78
2023-05-23T09:16:21.262Z,25.93
2023-05-23T09:18:54.093Z,26.09
2023-05-23T09:21:26.318Z,25.86
2023-05-23T09:24:07.002Z,26.02
2023-05-23T09:26:36.363Z,25.83
2023-05-23T09:29:07.959Z,26.12
2023-05-23T09:31:37.496Z,26.30
2023-05-23T09:34:07.012Z,26.47
2023-05-23T09:36:37.533Z,26.51
2023-05-23T09:39:08.208Z,26.55
2023-05-23T09:41:37.190Z,26.47
2023-05-23T09:44:10.072Z,26.58
2023-05-23T09:46:39.522Z,26.76
2023-05-23T09:49:19.080Z,26.89
2023-05-23T09:52:00.949Z,27.24
2023-05-23T09:54:30.105Z,27.60
2023-05-23T09:57:04.282Z,27.53
2023-05-23T09:59:40.169Z,27.39
2023-05-23T10:02:13.578Z,27.32
2023-05-23T10:04:44.631Z,27.45
2023-05-23T10:07:22.429Z,27.02
2023-05-23T10:09:59.114Z,26.93
2023-05-23T10:12:51.368Z,26.99
2023-05-23T10:15:24.025Z,26.85
2023-05-23T10:18:09.141Z,27.13
2023-05-23T10:20:41.843Z,27.15
2023-05-23T10:23:13.814Z,27.27
2023-05-23T10:25:45.677Z,27.63
2023-05-23T10:28:16.564Z,28.05
2023-05-23T10:30:46.995Z,28.53
2023-05-23T10:33:17.942Z,28.67
2023-05-23T10:35:58.632Z,28.76
2023-05-23T10:38:39.871Z,28.57
2023-05-23T10:41:19.865Z,28.44
2023-05-23T10:43:58.431Z,28.38
2023-05-23T10:46:55.149Z,28.52
2023-05-23T10:49:39.048Z,28.64
2023-05-23T10:52:08.954Z,28.76
2023-05-23T10:54:45.212Z,28.94
2023-05-23T10:57:19.191Z,29.13
2023-05-23T10:59:51.704Z,29.40
2023-05-23T11:02:27.590Z,29.65
2023-05-23T11:05:23.512Z,28.83
2023-05-23T11:08:13.954Z,28.33
2023-05-23T11:11:00.755Z,27.86
2023-05-23T11:14:00.473Z,27.55
2023-05-23T11:16:31.928Z,27.44
2023-05-23T11:19:26.376Z,27.13
2023-05-23T11:21:59.646Z,27.16
2023-05-23T11:24:52.354Z,27.31
2023-05-23T11:27:31.989Z,27.79
2023-05-23T11:30:05.381Z,27.85
2023-05-23T11:32:35.574Z,28.03
2023-05-23T11:35:07.131Z,28.11
2023-05-23T11:37:37.127Z,28.38
2023-05-23T11:40:28.965Z,28.57
2023-05-23T11:42:59.884Z,28.52
2023-05-23T11:45:32.332Z,28.46
2023-05-23T11:48:07.462Z,28.53
2023-05-23T11:50:45.296Z,28.35
2023-05-23T11:53:17.129Z,28.50
2023-05-23T11:55:55.306Z,28.40
2023-05-23T11:58:29.605Z,28.25
2023-05-23T12:01:02.863Z,28.24
2023-05-23T12:03:32.088Z,28.34
2023-05-23T12:06:02.006Z,28.22
2023-05-23T12:08:30.782Z,28.11
2023-05-23T12:11:02.016Z,27.94
2023-05-23T12:13:32.286Z,27.69
2023-05-23T12:16:04.646Z,27.03
2023-05-23T12:18:35.945Z,26.98
2023-05-23T12:21:08.348Z,26.82
2023-05-23T12:23:38.135Z,26.79
2023-05-23T12:26:10.227Z,26.88
2023-05-23T12:28:42.990Z,26.87
2023-05-23T12:31:13.592Z,26.78
2023-05-23T12:33:44.091Z,26.70
2023-05-23T12:36:13.981Z,26.65
2023-05-23T12:38:46.341Z,26.59
2023-05-23T12:41:20.520Z,26.66
2023-05-23T12:43:55.311Z,26.73
2023-05-23T12:46:26.265Z,26.75
2023-05-23T12:48:56.338Z,26.67
2023-05-23T12:51:25.602Z,26.63
2023-05-23T12:53:55.756Z,26.58
2023-05-23T12:56:25.101Z,26.49
2023-05-23T12:58:55.203Z,26.49
2023-05-23T13:01:24.634Z,26.59
2023-05-23T13:03:53.675Z,26.55
2023-05-23T13:06:22.935Z,26.43
2023-05-23T13:08:52.710Z,26.38
2023-05-23T13:11:22.510Z,26.61
2023-05-23T13:13:52.896Z,26.61
2023-05-23T13:16:23.771Z,26.74
2023-05-23T13:18:53.916Z,26.58
2023-05-23T13:21:23.566Z,26.57
2023-05-23T13:23:52.329Z,26.61
2023-05-23T13:26:21.859Z,26.45
2023-05-23T13:28:50.647Z,26.36
2023-05-23T13:31:19.807Z,26.22
2023-05-23T13:33:49.983Z,26.25
2023-05-23T13:36:19.193Z,26.30
2023-05-23T13:38:47.962Z,26.28
2023-05-23T13:41:17.028Z,26.26
2023-05-23T13:43:45.837Z,25.99
2023-05-23T13:46:15.014Z,26.24
2023-05-23T13:48:43.998Z,26.13
2023-05-23T13:51:14.429Z,26.02
2023-05-23T13:53:43.285Z,25.98
2023-05-23T13:56:12.532Z,25.99
2023-05-23T13:58:42.955Z,26.09
2023-05-23T14:01:12.056Z,26.08
2023-05-23T14:03:41.194Z,26.07
2023-05-23T14:06:10.363Z,26.03
2023-05-23T14:08:40.701Z,25.93
2023-05-23T14:11:09.846Z,25.96
2023-05-23T14:13:38.641Z,25.85
2023-05-23T14:16:08.206Z,25.92
2023-05-23T14:18:37.049Z,26.10
2023-05-23T14:21:06.252Z,26.16
2023-05-23T14:23:34.995Z,26.10
2023-05-23T14:26:06.644Z,26.04
2023-05-23T14:28:35.596Z,26.04
2023-05-23T14:31:04.708Z,26.13
2023-05-23T14:33:33.614Z,26.21
2023-05-23T14:36:03.044Z,26.21
2023-05-23T14:38:31.831Z,26.22
2023-05-23T14:41:00.876Z,26.31
2023-05-23T14:43:31.353Z,26.37
2023-05-23T14:46:01.326Z,26.31
2023-05-23T14:48:30.071Z,26.26
2023-05-23T14:51:01.703Z,26.19
2023-05-23T14:53:30.712Z,26.28
2023-05-23T14:55:59.718Z,26.24
2023-05-23T14:58:29.898Z,26.32
2023-05-23T15:00:59.112Z,26.29
2023-05-23T15:03:28.413Z,26.27
2023-05-23T15:05:57.538Z,26.29
2023-05-23T15:08:26.336Z,26.18
2023-05-23T15:10:55.719Z,26.21
2023-05-23T15:13:24.627Z,26.29
2023-05-23T15:15:55.184Z,26.27
2023-05-23T15:18:38.846Z,26.27
2023-05-23T15:21:10.820Z,26.20
2023-05-23T15:23:39.748Z,26.21
2023-05-23T15:26:08.836Z,26.17
2023-05-23T15:28:37.637Z,26.18
2023-05-23T15:31:08.101Z,26.22
2023-05-23T15:33:36.835Z,26.16
2023-05-23T15:36:09.314Z,26.17
2023-05-23T15:38:38.028Z,26.18
2023-05-23T15:41:07.461Z,26.20
2023-05-23T15:43:36.570Z,26.11
2023-05-23T15:46:07.719Z,26.16
2023-05-23T15:48:36.563Z,26.19
2023-05-23T15:51:06.103Z,26.21
2023-05-23T15:53:43.358Z,26.16
2023-05-23T15:56:17.592Z,26.09
2023-05-23T15:58:46.478Z,26.09
2023-05-23T16:01:16.980Z,26.00
2023-05-23T16:03:45.826Z,25.87
2023-05-23T16:06:15.178Z,25.84
2023-05-23T16:08:44.080Z,25.76
2023-05-23T16:11:13.312Z,25.68
2023-05-23T16:13:42.154Z,25.69
2023-05-23T16:16:11.347Z,25.63
2023-05-23T16:18:41.547Z,25.60
2023-05-23T16:21:11.031Z,25.55
2023-05-23T16:23:39.882Z,25.46
2023-05-23T16:26:08.898Z,25.44
2023-05-23T16:28:37.619Z,25.38
2023-05-23T16:31:06.814Z,25.40
2023-05-23T16:33:36.183Z,25.40
2023-05-23T16:36:07.317Z,25.41
2023-05-23T16:38:36.218Z,25.35
2023-05-23T16:41:05.516Z,25.31
2023-05-23T16:43:35.163Z,25.28
2023-05-23T16:46:04.660Z,25.20
2023-05-23T16:48:33.605Z,25.21
2023-05-23T16:51:02.739Z,25.16
2023-05-23T16:53:33.014Z,25.11
2023-05-23T16:56:02.018Z,25.04
2023-05-23T16:58:31.092Z,24.98
2023-05-23T17:01:00.129Z,24.95
2023-05-23T17:03:29.491Z,24.90
2023-05-23T17:05:58.646Z,24.84
2023-05-23T17:08:49.051Z,24.79
2023-05-23T17:11:18.297Z,24.78
2023-05-23T17:13:47.154Z,24.76
2023-05-23T17:16:20.353Z,24.74
2023-05-23T17:18:49.621Z,24.69
2023-05-23T17:21:18.750Z,24.66
2023-05-23T17:23:48.985Z,24.63
2023-05-23T17:26:19.621Z,24.58
2023-05-23T17:28:48.776Z,24.52
2023-05-23T17:31:18.347Z,24.46
2023-05-23T17:33:47.465Z,24.42
2023-05-23T17:36:16.597Z,24.38
2023-05-23T17:38:45.641Z,24.33
2023-05-23T17:41:17.624Z,24.18
2023-05-23T17:43:46.550Z,24.13
2023-05-23T17:46:15.654Z,24.05
2023-05-23T17:48:46.963Z,24.00
2023-05-23T17:51:17.598Z,23.89
2023-05-23T17:53:46.349Z,23.76
2023-05-23T17:56:16.751Z,23.63
2023-05-23T17:58:45.610Z,23.52
2023-05-23T18:01:14.758Z,23.40
2023-05-23T18:03:43.809Z,23.30
2023-05-23T18:06:13.168Z,23.19
2023-05-23T18:08:42.633Z,23.06
2023-05-23T18:11:11.832Z,22.98
2023-05-23T18:13:41.964Z,22.96
2023-05-23T18:16:11.007Z,22.93
2023-05-23T18:18:39.806Z,22.95
2023-05-23T18:21:10.045Z,22.92
2023-05-23T18:23:38.899Z,22.87
2023-05-23T18:26:08.042Z,22.87
2023-05-23T18:28:36.863Z,22.79
2023-05-23T18:31:07.361Z,22.71
2023-05-23T18:33:36.261Z,22.70
2023-05-23T18:36:06.883Z,22.62
2023-05-23T18:38:35.899Z,22.58
2023-05-23T18:41:05.242Z,22.54
2023-05-23T18:43:33.970Z,22.47
2023-05-23T18:46:03.210Z,22.40
2023-05-23T18:48:35.620Z,22.28
2023-05-23T18:51:05.581Z,22.24
2023-05-23T18:53:34.353Z,22.19
2023-05-23T18:56:03.414Z,22.19
2023-05-23T18:58:32.574Z,22.18
2023-05-23T19:01:03.907Z,22.13
2023-05-23T19:03:34.997Z,22.07
2023-05-23T19:06:04.847Z,22.04
2023-05-23T19:08:34.584Z,21.98
2023-05-23T19:11:04.869Z,21.92
2023-05-23T19:13:33.579Z,21.88
2023-05-23T19:16:02.752Z,21.83
2023-05-23T19:18:32.916Z,21.80
2023-05-23T19:21:02.238Z,21.74
2023-05-23T19:23:31.015Z,21.70
2023-05-23T19:26:00.131Z,21.71
2023-05-23T19:28:31.284Z,21.65
2023-05-23T19:31:00.294Z,21.57
2023-05-23T19:33:29.102Z,21.51
2023-05-23T19:35:59.522Z,21.44
2023-05-23T19:38:28.342Z,21.35
2023-05-23T19:40:57.975Z,21.30
2023-05-23T19:43:26.882Z,21.25
2023-05-23T19:45:55.928Z,21.19
2023-05-23T19:48:28.749Z,21.13
2023-05-23T19:50:59.133Z,21.08
2023-05-23T19:53:27.881Z,21.04
2023-05-23T19:55:57.681Z,21.00
2023-05-23T19:58:32.596Z,20.96
2023-05-23T20:01:01.762Z,20.90
2023-05-23T20:03:30.929Z,20.92
2023-05-23T20:06:01.620Z,20.91
2023-05-23T20:08:30.489Z,20.87
2023-05-23T20:11:00.511Z,20.86
2023-05-23T20:13:29.306Z,20.85
2023-05-23T20:15:58.665Z,20.83
2023-05-23T20:18:27.796Z,20.84
2023-05-23T20:20:56.826Z,20.84
2023-05-23T20:23:28.579Z,20.84
2023-05-23T20:25:57.818Z,20.81
2023-05-23T20:28:27.460Z,20.81
2023-05-23T20:30:56.753Z,20.81
2023-05-23T20:33:25.595Z,20.80
2023-05-23T20:35:55.026Z,20.78
2023-05-23T20:38:24.840Z,20.78
2023-05-23T20:40:55.473Z,20.73
2023-05-23T20:43:24.341Z,20.71
2023-05-23T20:45:53.855Z,20.71
2023-05-23T20:48:22.686Z,20.66
2023-05-23T20:50:52.376Z,20.68
2023-05-23T20:53:24.239Z,20.65
2023-05-23T20:55:54.759Z,20.62
2023-05-23T20:58:23.583Z,20.62
2023-05-23T21:00:52.712Z,20.63
2023-05-23T21:03:21.868Z,20.58
2023-05-23T21:05:51.097Z,20.58
2023-05-23T21:08:19.973Z,20.59
2023-05-23T21:10:51.721Z,20.58
2023-05-23T21:13:24.493Z,20.58
2023-05-23T21:15:53.579Z,20.54
2023-05-23T21:18:22.924Z,20.56
2023-05-23T21:20:52.046Z,20.52
2023-05-23T21:23:20.863Z,20.53
2023-05-23T21:25:50.020Z,20.50
2023-05-23T21:28:18.861Z,20.46
2023-05-23T21:30:50.027Z,20.44
2023-05-23T21:33:18.876Z,20.41
2023-05-23T21:35:48.199Z,20.39
2023-05-23T21:38:16.961Z,20.37
2023-05-23T21:40:46.222Z,20.38
2023-05-23T21:43:15.048Z,20.36
2023-05-23T21:45:44.073Z,20.35
2023-05-23T21:48:14.281Z,20.31
2023-05-23T21:50:43.660Z,20.31
2023-05-23T21:53:12.596Z,20.29
2023-05-23T21:55:41.610Z,20.28
2023-05-23T21:58:10.396Z,20.27
2023-05-23T22:00:40.252Z,20.26
2023-05-23T22:03:09.182Z,20.28
2023-05-23T22:05:39.786Z,20.27
2023-05-23T22:08:08.793Z,20.28
2023-05-23T22:10:37.876Z,20.28
2023-05-23T22:13:07.418Z,20.26
2023-05-23T22:15:36.932Z,20.24
2023-05-23T22:18:06.649Z,20.22
2023-05-23T22:20:38.862Z,20.21
2023-05-23T22:23:09.999Z,20.20
2023-05-23T22:25:39.056Z,20.18
2023-05-23T22:28:07.780Z,20.18
2023-05-23T22:30:36.868Z,20.17
2023-05-23T22:33:12.939Z,20.20
2023-05-23T22:35:43.063Z,20.13
2023-05-23T22:38:13.198Z,20.14
2023-05-23T22:40:42.463Z,20.12
2023-05-23T22:43:11.378Z,20.11
2023-05-23T22:45:42.603Z,20.11
2023-05-23T22:48:12.214Z,20.11
2023-05-23T22:50:41.696Z,20.11
2023-05-23T22:53:12.863Z,20.10
2023-05-23T22:55:42.190Z,20.05
2023-05-23T22:58:11.030Z,20.02
2023-05-23T23:00:40.185Z,20.02
2023-05-23T23:03:09.126Z,20.02
2023-05-23T23:05:38.237Z,20.01
2023-05-23T23:08:07.271Z,19.97
2023-05-23T23:10:37.674Z,19.96
2023-05-23T23:13:06.479Z,19.96
2023-05-23T23:15:36.801Z,19.94
2023-05-23T23:18:06.781Z,19.91
2023-05-23T23:20:35.935Z,19.90
2023-05-23T23:23:04.663Z,19.90
2023-05-23T23:25:33.675Z,19.87
2023-05-23T23:28:03.795Z,19.90
2023-05-23T23:30:32.795Z,19.92
2023-05-23T23:33:01.692Z,19.91
2023-05-23T23:35:30.866Z,19.94
2023-05-23T23:37:59.609Z,19.90
2023-05-23T23:40:28.739Z,19.87
2023-05-23T23:42:57.477Z,19.87
2023-05-23T23:45:27.863Z,19.90
2023-05-23T23:47:56.658Z,19.86
2023-05-23T23:50:26.795Z,19.87
2023-05-23T23:52:58.094Z,19.86
2023-05-23T23:55:27.543Z,19.84
2023-05-23T23:57:56.306Z,19.84
